createdAt,value
2022-08-11T00:04:42.118Z,102266.84
2022-08-11T00:15:04.745Z,102271.34
2022-08-11T00:25:26.470Z,102266.69
2022-08-11T00:35:57.483Z,102266.69
2022-08-11T00:46:25.528Z,102271.84
2022-08-11T00:57:37.256Z,102273.19
2022-08-11T01:08:36.939Z,102282.19
2022-08-11T01:20:38.502Z,102275.97
2022-08-11T01:30:39.400Z,102261.19
2022-08-11T01:41:54.376Z,102266.59
2022-08-11T01:52:31.031Z,102263.00
2022-08-11T02:03:15.651Z,102266.09
2022-08-11T02:13:42.265Z,102263.81
2022-08-11T02:24:17.332Z,102263.88
2022-08-11T02:35:00.142Z,102260.88
2022-08-11T02:45:34.572Z,102260.00
2022-08-11T02:56:22.910Z,102258.66
2022-08-11T03:07:01.966Z,102261.75
2022-08-11T03:18:12.550Z,102260.78
2022-08-11T03:28:51.882Z,102262.06
2022-08-11T03:39:31.690Z,102267.56
2022-08-11T03:50:24.751Z,102271.75
2022-08-11T04:01:29.576Z,102270.41
2022-08-11T04:12:13.307Z,102276.19
2022-08-11T04:22:54.321Z,102269.44
2022-08-11T04:33:35.237Z,102261.94
2022-08-11T04:44:27.588Z,102261.94
2022-08-11T04:55:27.191Z,102267.00
2022-08-11T05:06:25.247Z,102272.25
2022-08-11T05:17:12.036Z,102262.81
2022-08-11T05:27:57.372Z,102263.19
2022-08-11T05:38:41.511Z,102271.38
2022-08-11T05:49:22.053Z,102278.63
2022-08-11T05:59:46.061Z,102270.66
2022-08-11T06:10:09.806Z,102286.81
2022-08-11T06:20:37.380Z,102273.78
2022-08-11T06:31:00.301Z,102272.56
2022-08-11T06:41:31.881Z,102270.06
2022-08-11T06:51:56.749Z,102274.72
2022-08-11T07:02:34.030Z,102279.34
2022-08-11T07:13:44.314Z,102275.13
2022-08-11T07:24:19.850Z,102273.38
2022-08-11T07:35:14.284Z,102269.69
2022-08-11T07:45:54.395Z,102274.19
2022-08-11T07:56:19.653Z,102272.00
2022-08-11T08:07:12.753Z,102273.97
2022-08-11T08:18:20.996Z,102269.28
2022-08-11T08:28:39.763Z,102273.50
2022-08-11T08:39:01.750Z,102269.47
2022-08-11T08:49:31.369Z,102267.09
2022-08-11T08:59:53.241Z,102259.94
2022-08-11T09:10:19.476Z,102259.63
2022-08-11T09:20:41.369Z,102249.13
2022-08-11T09:31:06.319Z,102247.03
2022-08-11T09:41:28.017Z,102238.63
2022-08-11T09:52:10.956Z,102225.28
2022-08-11T10:02:33.071Z,102228.34
2022-08-11T10:13:05.538Z,102219.81
2022-08-11T10:24:19.497Z,102214.25
2022-08-11T10:35:02.181Z,102205.91
2022-08-11T10:45:43.454Z,102191.25
2022-08-11T10:56:24.611Z,102195.44
2022-08-11T11:07:13.788Z,102177.84
2022-08-11T11:18:07.539Z,102177.50
2022-08-11T11:28:43.580Z,102171.72
2022-08-11T11:39:07.088Z,102174.53
2022-08-11T11:49:32.276Z,102162.13
2022-08-11T12:00:12.934Z,102158.88
2022-08-11T12:10:34.825Z,102151.81
2022-08-11T12:20:56.591Z,102154.53
2022-08-11T12:31:22.174Z,102134.69
2022-08-11T12:42:03.088Z,102126.97
2022-08-11T12:52:29.797Z,102111.63
2022-08-11T13:03:11.045Z,102119.00
2022-08-11T13:13:53.698Z,102095.94
2022-08-11T13:24:15.895Z,102088.66
2022-08-11T13:34:42.295Z,102083.56
2022-08-11T13:45:04.623Z,102082.81
2022-08-11T13:55:51.022Z,102074.94
2022-08-11T14:06:10.147Z,102057.84
2022-08-11T14:16:36.974Z,102048.59
2022-08-11T14:26:59.926Z,102043.22
2022-08-11T14:37:23.806Z,102029.44
2022-08-11T14:47:50.557Z,102021.47
2022-08-11T14:58:17.033Z,102011.63
2022-08-11T15:08:54.856Z,102011.19
2022-08-11T15:19:21.144Z,102008.41
2022-08-11T15:30:02.762Z,102001.94
2022-08-11T15:40:47.806Z,101988.03
2022-08-11T15:51:13.191Z,101984.81
2022-08-11T16:01:56.553Z,101970.16
2022-08-11T16:12:25.695Z,101970.28
2022-08-11T16:22:55.104Z,101958.25
2022-08-11T16:33:48.934Z,101949.31
2022-08-11T16:44:32.755Z,101940.50
2022-08-11T16:54:59.836Z,101945.19
2022-08-11T17:05:54.457Z,101938.22
2022-08-11T17:16:23.968Z,101936.16
2022-08-11T17:26:58.652Z,101931.97
2022-08-11T17:37:21.701Z,101917.44
2022-08-11T17:48:03.028Z,101921.31
2022-08-11T17:58:44.124Z,101918.84
2022-08-11T18:09:28.246Z,101919.88
2022-08-11T18:20:08.518Z,101917.19
2022-08-11T18:30:53.911Z,101924.91
2022-08-11T18:41:47.743Z,101934.25
2022-08-11T18:52:28.342Z,101938.50
2022-08-11T19:03:09.514Z,101932.78
2022-08-11T19:13:51.796Z,101934.16
2022-08-11T19:24:33.455Z,101949.91
2022-08-11T19:35:18.124Z,101949.94
2022-08-11T19:46:00.050Z,101956.25
2022-08-11T19:56:40.822Z,101960.59
2022-08-11T20:07:21.620Z,101968.13
2022-08-11T20:18:02.365Z,101978.81
2022-08-11T20:28:44.800Z,101970.19
2022-08-11T20:39:26.250Z,101983.19
2022-08-11T20:50:07.943Z,101985.41
2022-08-11T21:01:00.169Z,101986.66
2022-08-11T21:11:41.830Z,102000.28
2022-08-11T21:22:28.069Z,101998.19
2022-08-11T21:33:10.511Z,102004.03
2022-08-11T21:43:52.708Z,101999.50
2022-08-11T21:54:34.587Z,102007.03
2022-08-11T22:05:15.290Z,102000.44
2022-08-11T22:15:56.414Z,101998.28
2022-08-11T22:26:39.635Z,101999.13
2022-08-11T22:37:27.421Z,101998.59
2022-08-11T22:48:09.268Z,101994.81
2022-08-11T22:58:50.379Z,101987.72
2022-08-11T23:09:31.025Z,101993.16
2022-08-11T23:20:35.726Z,101993.63
2022-08-11T23:31:15.768Z,101989.03
2022-08-11T23:41:56.504Z,101980.53
2022-08-11T23:52:37.230Z,101982.50
